Time;durP1;ratioP1;P1;durP2;ratioP2;P2;SDS_P1;SDS_P2;PMS_P1;PMS_P2;Temp;Humidity;BMP_temperature;BMP_pressure;BME280_temperature;BME280_humidity;BME280_pressure;Samples;Min_cycle;Max_cycle;Signal;HPM_P1;HPM_P2
2023/10/01 00:01:43;;;;;;;13.13;2.40;;;13.40;99.90;;;12.44;99.37;101938.13;6194524;23;20096;-82
2023/10/01 00:04:12;;;;;;;15.20;2.85;;;13.50;99.90;;;12.47;98.91;101930.06;6128058;23;20554;-82
2023/10/01 00:06:52;;;;;;;20.05;2.70;;;13.50;99.90;;;12.54;99.14;101921.94;6027552;23;20018;-82
2023/10/01 00:09:43;;;;;;;14.18;2.80;;;11.90;99.90;;;12.59;98.66;101922.63;6038934;23;20069;-83
2023/10/01 00:12:12;;;;;;;17.92;2.67;;;13.60;99.90;;;12.63;98.24;101922.44;6035968;23;20557;-82
2023/10/01 00:20:42;;;;;;;19.77;2.60;;;13.70;99.90;;;12.70;97.67;101917.81;6019561;23;20018;-82
2023/10/01 00:23:52;;;;;;;17.55;3.40;;;13.70;99.90;;;12.71;97.61;101927.47;5989716;23;20058;-82
2023/10/01 00:26:32;;;;;;;19.88;2.80;;;13.70;99.90;;;12.72;97.56;101924.78;5965437;23;20040;-82
2023/10/01 00:29:43;;;;;;;11.85;2.10;;;13.70;99.90;;;12.69;97.58;101927.50;5989979;23;20026;-83
2023/10/01 00:33:05;;;;;;;;;;;;;;;;;;;;;
2023/10/01 00:38:53;;;;;;;14.13;2.22;;;13.70;99.90;;;12.68;98.27;101893.25;6234810;22;20385;-82
2023/10/01 00:41:41;;;;;;;14.48;2.35;;;13.80;99.90;;;12.69;98.27;101892.31;6010510;23;20061;-82
2023/10/01 00:44:38;;;;;;;;;;;;;;;;;;;;;
2023/10/01 00:47:22;;;;;;;16.63;2.58;;;13.70;99.90;;;12.69;98.32;101897.59;5920158;23;20541;-82
2023/10/01 00:50:31;;;;;;;18.92;2.70;;;13.70;99.90;;;12.69;98.33;101901.09;5957700;23;20016;-82
2023/10/01 00:53:32;;;;;;;21.85;2.58;;;;;;;12.71;97.91;101896.59;5892699;24;20025;-82
2023/10/01 00:56:42;;;;;;;23.90;2.90;;;13.70;99.90;;;12.72;98.21;101903.63;5857392;23;20024;-83
2023/10/01 00:59:36;;;;;;;19.23;2.78;;;13.70;99.90;;;12.74;97.68;101900.91;6072148;23;20049;-82
2023/10/01 01:02:37;;;;;;;17.83;3.25;;;13.80;99.90;;;12.71;97.86;101916.91;6084864;23;20084;-82
2023/10/01 01:11:23;;;;;;;19.58;2.25;;;13.70;99.90;;;12.65;99.10;101894.19;5851211;24;20530;-81
2023/10/01 01:14:04;;;;;;;14.25;2.22;;;;;;;12.65;99.35;101886.25;5840477;24;20021;-82
2023/10/01 01:16:45;;;;;;;14.68;2.53;;;;;;;12.66;99.05;101887.16;5922467;22;20527;-83
2023/10/01 01:19:23;;;;;;;14.43;2.55;;;13.70;99.90;;;12.68;99.28;101891.44;6103513;23;20009;-82
2023/10/01 01:22:28;;;;;;;12.45;2.72;;;13.70;99.90;;;12.66;99.17;101884.50;6140629;23;20040;-82
2023/10/01 01:24:57;;;;;;;27.13;2.65;;;;;;;12.64;99.63;101889.84;6088192;23;20018;-83
2023/10/01 01:27:23;;;;;;;14.52;2.42;;;13.70;99.90;;;12.63;99.79;101885.44;6001678;23;20017;-81
2023/10/01 01:30:52;;;;;;;13.73;2.40;;;;;;;12.64;99.86;101881.06;6053367;23;20024;-82
2023/10/01 01:33:39;;;;;;;15.18;2.60;;;13.70;99.90;;;12.62;99.84;101869.69;5832685;24;20022;-83
2023/10/01 01:36:23;;;;;;;18.25;2.60;;;13.70;99.90;;;12.65;100.00;101875.69;5823862;23;20023;-82
2023/10/01 01:39:54;;;;;;;19.13;2.35;;;13.60;99.90;;;12.62;100.00;101867.03;6177819;23;20013;-82
2023/10/01 01:42:35;;;;;;;11.90;2.47;;;;;;;12.62;100.00;101870.53;6057358;23;20015;-81
2023/10/01 01:45:30;;;;;;;;;;;;;;;;;;;;;
2023/10/01 01:51:08;;;;;;;17.58;2.78;;;13.70;99.90;;;12.62;100.00;101854.69;6035229;23;20013;-82
2023/10/01 01:53:46;;;;;;;17.35;3.08;;;13.70;99.90;;;12.64;100.00;101854.63;6041066;23;20014;-83
2023/10/01 01:56:24;;;;;;;17.27;2.90;;;13.70;99.90;;;12.66;100.00;101850.16;5997434;23;20031;-82
2023/10/01 01:58:52;;;;;;;15.82;2.80;;;13.70;99.90;;;12.68;100.00;101845.66;6026916;23;20015;-82
2023/10/01 02:01:35;;;;;;;16.25;3.00;;;13.70;99.90;;;12.67;100.00;101847.44;6155728;23;20032;-82
2023/10/01 02:07:54;;;;;;;12.68;2.70;;;13.70;99.90;;;12.66;100.00;101834.28;5885673;23;20148;-82
2023/10/01 02:10:56;;;;;;;;;;;;;;;;;;;;;
2023/10/01 02:14:05;;;;;;;17.77;2.85;;;;;;;12.70;100.00;101846.47;5881509;24;20049;-81
2023/10/01 02:16:44;;;;;;;23.38;2.70;;;13.70;99.90;;;12.69;100.00;101842.09;5836048;24;20684;-82
2023/10/01 02:19:23;;;;;;;13.90;2.90;;;13.80;99.90;;;12.70;100.00;101847.34;5799690;24;20044;-82
2023/10/01 02:22:16;;;;;;;22.17;3.58;;;13.80;99.90;;;12.69;100.00;101840.31;5852886;24;20020;-82
2023/10/01 02:24:54;;;;;;;14.70;4.60;;;;;;;12.69;100.00;101839.44;5854722;24;20016;-82
2023/10/01 02:30:32;;;;;;;16.50;4.78;;;;;;;12.63;100.00;101850.25;5887373;24;20028;-83
2023/10/01 02:33:16;;;;;;;17.13;3.60;;;;;;;12.61;100.00;101846.78;5881499;24;20021;-83
2023/10/01 02:42:03;;;;;;;18.02;3.22;;;13.60;99.90;;;12.57;100.00;101835.50;6024380;23;20020;-82
2023/10/01 02:44:47;;;;;;;17.63;3.40;;;13.60;99.90;;;12.58;100.00;101833.72;6036499;23;20018;-82
2023/10/01 02:47:34;;;;;;;;;;;;;;;;;;;;;
2023/10/01 02:50:14;;;;;;;13.32;2.75;;;13.60;99.90;;;12.56;100.00;101835.56;5972539;23;20092;-82
2023/10/01 02:52:44;;;;;;;15.63;2.70;;;13.60;99.90;;;12.59;100.00;101832.78;5888656;23;20095;-81
2023/10/01 02:56:52;;;;;;;20.55;3.30;;;13.60;99.90;;;12.59;100.00;101841.59;5908131;24;20476;-82
2023/10/01 03:02:37;;;;;;;23.50;2.72;;;13.60;99.90;;;12.56;100.00;101839.03;5876243;24;20176;-82
2023/10/01 03:06:20;;;;;;;18.67;3.63;;;13.60;99.90;;;12.57;100.00;101834.63;5808528;24;20022;-82
2023/10/01 03:09:33;;;;;;;19.95;3.38;;;13.60;99.90;;;12.58;100.00;101836.34;5872910;24;20021;-82
2023/10/01 03:12:49;;;;;;;14.20;3.42;;;13.60;99.90;;;12.60;100.00;101838.00;5819912;24;20026;-82
2023/10/01 03:15:35;;;;;;;19.52;3.97;;;13.70;99.90;;;12.61;100.00;101831.84;5737013;24;20026;-83
2023/10/01 03:29:16;;;;;;;16.05;3.60;;;13.70;99.90;;;12.62;100.00;101837.97;6138627;23;20025;-82
2023/10/01 03:31:53;;;;;;;22.48;4.00;;;13.70;99.90;;;12.60;100.00;101835.38;6151449;23;20024;-81
2023/10/01 03:34:43;;;;;;;19.52;4.03;;;13.60;99.90;;;12.62;100.00;101824.75;6057145;23;20105;-82
2023/10/01 03:37:37;;;;;;;19.88;3.10;;;13.80;99.90;;;12.62;100.00;101833.53;6068060;23;20021;-81
2023/10/01 03:40:22;;;;;;;15.45;3.17;;;13.60;99.90;;;12.61;100.00;101830.94;5928764;23;20424;-83
2023/10/01 03:43:05;;;;;;;17.55;3.00;;;13.70;99.90;;;12.63;100.00;101821.19;5936130;23;20065;-82
2023/10/01 03:45:54;;;;;;;20.70;3.85;;;13.70;99.90;;;12.65;100.00;101822.84;6001462;23;20020;-83
2023/10/01 04:01:15;;;;;;;16.15;3.05;;;;;;;12.62;100.00;101809.75;6110581;23;20355;-83
2023/10/01 04:05:06;;;;;;;;;;;;;;;;;;;;;
2023/10/01 04:07:49;;;;;;;24.95;3.63;;;13.70;99.90;;;12.64;100.00;101805.28;5987355;23;20512;-83
2023/10/01 04:10:28;;;;;;;17.67;3.53;;;13.70;99.90;;;12.68;100.00;101808.69;5913160;23;20017;-82
2023/10/01 04:19:23;;;;;;;;;;;;;;;;;;;;;
2023/10/01 04:22:36;;;;;;;26.20;3.88;;;12.70;99.90;;;12.73;100.00;101799.63;5786659;24;20088;-83
2023/10/01 04:25:14;;;;;;;26.13;4.45;;;;;;;12.77;100.00;101794.25;5726776;24;20016;-83
2023/10/01 04:27:54;;;;;;;17.83;3.47;;;13.80;99.90;;;12.78;100.00;101783.59;5759710;24;20030;-83
2023/10/01 04:38:15;;;;;;;17.70;3.58;;;13.80;99.90;;;12.82;100.00;101787.84;5607516;25;20036;-81
2023/10/01 04:40:46;;;;;;;14.67;3.03;;;;;;;12.84;100.00;101780.72;5098335;25;4976487;-82
2023/10/01 04:43:21;;;;;;;19.98;3.70;;;;;;;12.86;100.00;101784.16;5542788;25;20033;-80
2023/10/01 04:48:24;;;;;;;15.98;3.63;;;13.90;99.90;;;12.90;100.00;101779.63;6174235;22;20456;-81
2023/10/01 04:50:53;;;;;;;16.42;4.30;;;13.90;99.90;;;12.89;100.00;101780.53;6051280;23;20017;-82
2023/10/01 04:54:21;;;;;;;22.33;4.15;;;13.90;99.90;;;12.89;100.00;101785.81;6100306;23;20014;-81
2023/10/01 04:57:14;;;;;;;24.67;4.60;;;13.90;99.90;;;12.89;100.00;101784.06;6026347;23;20019;-81
2023/10/01 04:59:56;;;;;;;24.63;3.45;;;13.90;99.90;;;12.88;100.00;101777.03;5954790;23;20068;-80
2023/10/01 05:02:36;;;;;;;18.75;3.42;;;13.90;99.90;;;12.88;100.00;101782.31;5964515;23;20024;-81
2023/10/01 05:05:11;;;;;;;21.10;3.63;;;;;;;12.88;100.00;101784.97;5999931;23;20699;-82
2023/10/01 05:08:47;;;;;;;19.88;2.92;;;13.90;99.90;;;12.88;100.00;101782.31;6021786;23;20583;-81
2023/10/01 05:11:34;;;;;;;16.75;2.78;;;;;;;12.89;100.00;101789.34;5853180;24;20034;-82
2023/10/01 05:14:04;;;;;;;15.68;3.28;;;13.90;99.90;;;12.87;100.00;101793.84;5862667;24;20468;-81
2023/10/01 05:16:43;;;;;;;21.05;3.10;;;13.90;99.90;;;12.89;100.00;101789.34;5799769;24;20564;-81
2023/10/01 05:19:52;;;;;;;18.30;2.80;;;13.90;99.90;;;12.91;100.00;101798.06;5740161;24;20140;-81
2023/10/01 05:22:46;;;;;;;19.27;2.55;;;;;;;12.92;100.00;101796.28;5783697;24;20018;-82
2023/10/01 05:25:18;;;;;;;13.93;3.03;;;14.00;99.90;;;12.93;100.00;101800.63;5764982;24;20023;-82
2023/10/01 05:27:58;;;;;;;19.02;2.80;;;13.90;99.90;;;12.92;100.00;101793.66;5710016;24;20838;-80
2023/10/01 05:34:05;;;;;;;17.52;3.08;;;13.90;99.90;;;12.88;100.00;101786.75;5738807;24;20713;-82
2023/10/01 05:36:44;;;;;;;17.10;2.90;;;;;;;12.87;100.00;101793.84;5731337;24;20027;-80
2023/10/01 05:39:23;;;;;;;14.80;2.63;;;13.90;99.90;;;12.87;100.00;101791.19;5756597;24;20044;-81
2023/10/01 05:42:34;;;;;;;16.65;2.83;;;;;;;12.92;100.00;101791.84;5707021;24;20066;-82
2023/10/01 05:45:30;;;;;;;;;;;;;;;;;;;;;
2023/10/01 05:48:12;;;;;;;16.45;2.97;;;;;;;12.98;100.00;101792.53;6076261;23;20969;-83
2023/10/01 05:51:06;;;;;;;17.20;2.70;;;14.00;99.90;;;13.01;100.00;101789.78;6076400;23;20018;-81
2023/10/01 05:53:32;;;;;;;14.05;2.60;;;13.90;99.90;;;12.98;100.00;101782.84;6145773;23;20901;-81
2023/10/01 05:56:24;;;;;;;14.77;3.05;;;14.00;99.90;;;13.00;100.00;101769.53;6062864;23;20022;-82
2023/10/01 05:59:23;;;;;;;25.83;3.22;;;14.00;99.90;;;13.00;100.00;101766.88;6125665;23;20485;-81
2023/10/01 06:01:48;;;;;;;13.38;2.38;;;14.00;99.90;;;13.00;100.00;101777.47;6022095;23;20111;-81
2023/10/01 06:04:43;;;;;;;15.25;2.80;;;14.10;99.90;;;13.02;100.00;101780.91;6082233;23;20009;-80
2023/10/01 06:09:44;;;;;;;16.10;3.27;;;14.10;99.90;;;13.04;100.00;101784.34;6199270;22;20027;-82
2023/10/01 06:12:25;;;;;;;13.55;2.42;;;;;;;13.06;100.00;101779.88;6188612;22;20251;-81
2023/10/01 06:19:07;;;;;;;12.75;3.05;;;14.10;99.90;;;13.12;100.00;101798.13;6027314;23;20487;-81
2023/10/01 06:21:44;;;;;;;16.20;2.90;;;;;;;13.16;100.00;101798.88;5889810;24;20371;-80
2023/10/01 06:24:23;;;;;;;14.00;2.88;;;14.20;99.90;;;13.19;100.00;101790.81;5909131;24;20095;-81
2023/10/01 06:27:09;;;;;;;18.83;3.15;;;14.20;99.90;;;13.25;100.00;101796.72;6032227;23;20020;-81
2023/10/01 06:33:05;;;;;;;;;;;;;;;;;;;;;
2023/10/01 06:39:06;;;;;;;12.88;2.95;;;14.50;99.90;;;13.42;99.27;101795.19;6188601;22;20018;-81
2023/10/01 06:41:33;;;;;;;15.52;2.88;;;14.50;99.90;;;13.46;98.51;101795.00;6079552;23;20018;-81
2023/10/01 06:44:55;;;;;;;18.20;3.40;;;14.50;99.90;;;13.51;98.39;101800.94;6020832;23;20061;-81
2023/10/01 06:47:25;;;;;;;15.45;3.90;;;14.50;99.90;;;13.50;97.92;101799.25;5936971;23;20021;-80
2023/10/01 06:50:33;;;;;;;13.88;3.28;;;14.50;99.90;;;13.56;97.40;101803.41;5981302;23;20016;-81
2023/10/01 06:53:13;;;;;;;16.15;4.25;;;14.60;99.90;;;13.63;97.17;101810.19;5880831;24;20028;-81
2023/10/01 06:56:04;;;;;;;;;;;;;;;;;;;;;
2023/10/01 06:58:33;;;;;;;18.70;3.40;;;14.70;99.90;;;13.72;96.40;101820.38;5857494;24;20201;-81
2023/10/01 07:01:47;;;;;;;17.05;2.90;;;14.70;99.90;;;13.79;96.25;101828.06;5804150;24;20489;-81
2023/10/01 07:04:24;;;;;;;20.60;3.40;;;14.80;99.90;;;13.84;95.59;101823.41;5779672;24;20501;-82
2023/10/01 07:07:22;;;;;;;16.40;3.30;;;14.80;99.90;;;13.88;95.27;101815.25;5883602;23;20077;-81
2023/10/01 07:10:23;;;;;;;;;;;;;;;;;;;;;
2023/10/01 07:13:15;;;;;;;14.23;3.13;;;14.90;99.90;;;13.99;94.69;101833.34;6178439;22;20555;-82
2023/10/01 07:19:23;;;;;;;13.13;3.67;;;;;;;14.07;93.65;101836.53;6021438;23;20081;-81
2023/10/01 07:22:24;;;;;;;18.50;3.97;;;;;;;14.12;93.72;101838.97;6003265;23;20011;-81
2023/10/01 07:24:53;;;;;;;14.30;3.40;;;15.10;99.90;;;14.16;93.40;101853.78;5975096;23;20415;-82
2023/10/01 07:27:33;;;;;;;19.15;3.60;;;15.20;99.90;;;14.25;93.00;101852.53;5987016;23;20076;-82
2023/10/01 07:36:43;;;;;;;16.75;3.10;;;15.40;99.90;;;14.52;92.04;101861.91;5901864;24;20031;-82
2023/10/01 07:39:23;;;;;;;15.68;3.42;;;15.50;99.90;;;14.64;92.03;101860.50;5858390;24;20052;-82
2023/10/01 07:42:17;;;;;;;11.20;2.83;;;;;;;14.68;91.44;101859.44;5854538;24;20022;-80
2023/10/01 07:44:45;;;;;;;16.30;3.47;;;;;;;14.73;90.77;101865.41;5893414;24;20021;-81
2023/10/01 07:47:55;;;;;;;18.02;3.20;;;15.80;99.90;;;14.79;90.27;101858.94;5980048;23;20372;-82
2023/10/01 07:50:30;;;;;;;;;;;;;;;;;;;;;
2023/10/01 07:53:12;;;;;;;;;;;15.80;99.90;;;14.96;89.12;101861.66;6005035;23;20111;-82
2023/10/01 07:55:50;;;;;;;15.50;2.97;;;16.00;99.90;;;15.11;89.07;101859.25;6023767;23;19925;-82
2023/10/01 08:01:45;;;;;;;11.10;2.60;;;;;;;15.73;87.49;101875.72;5977642;23;20022;-82
2023/10/01 08:07:53;;;;;;;12.23;2.67;;;17.10;99.90;;;16.27;83.31;101881.81;5958422;23;21538;-82
2023/10/01 08:11:03;;;;;;;9.73;2.58;;;;;;;16.44;81.38;101888.03;6080153;23;20014;-80
2023/10/01 08:13:46;;;;;;;13.98;2.50;;;;;;;16.55;79.90;101886.53;6061235;23;20025;-81
2023/10/01 08:16:13;;;;;;;17.27;3.00;;;17.40;99.90;;;16.60;79.48;101881.81;6178492;23;20177;-82
2023/10/01 08:19:05;;;;;;;443.70;215.75;;;17.50;99.90;;;16.67;78.59;101876.16;6117434;23;20529;-81
2023/10/01 08:22:13;;;;;;;14.80;2.90;;;;;;;16.79;79.03;101886.16;6017408;23;20045;-82
2023/10/01 08:25:12;;;;;;;16.70;3.13;;;;;;;16.89;77.98;101882.09;5984534;23;20018;-81
2023/10/01 08:35:05;;;;;;;8.18;1.67;;;18.30;99.90;;;17.53;75.30;101898.88;6073325;23;20020;-82
2023/10/01 08:37:49;;;;;;;13.35;2.50;;;;;;;17.90;75.05;101904.78;5967453;23;20483;-82
2023/10/01 08:40:44;;;;;;;13.50;2.88;;;18.80;99.90;;;18.15;72.51;101904.19;5986742;23;20027;-81
2023/10/01 08:44:09;;;;;;;13.05;2.90;;;19.00;99.90;;;18.27;70.48;101910.56;5953585;24;20020;-82
2023/10/01 08:46:39;;;;;;;15.45;3.10;;;19.20;99.90;;;18.35;71.68;101915.44;5851211;23;20024;-81
2023/10/01 08:49:31;;;;;;;13.98;3.25;;;;;;;18.40;73.06;101910.69;6039972;23;20471;-82
2023/10/01 08:53:12;;;;;;;15.90;3.15;;;19.30;99.90;;;18.43;71.70;101899.84;6008272;23;20022;-82
2023/10/01 08:59:23;;;;;;;22.80;3.50;;;;;;;18.33;70.75;101896.03;5749425;24;20402;-82
2023/10/01 09:11:11;;;;;;;21.55;4.50;;;19.30;99.90;;;18.61;70.12;101892.50;6143019;23;20028;-83
2023/10/01 09:14:25;;;;;;;16.67;3.60;;;19.50;99.90;;;18.80;70.16;101890.44;6175953;23;20012;-82
2023/10/01 09:17:12;;;;;;;12.68;3.42;;;19.80;99.90;;;19.04;68.55;101905.88;6070080;23;20091;-81
2023/10/01 09:20:06;;;;;;;13.57;3.47;;;19.90;99.90;;;19.23;68.28;101902.88;6054676;23;20045;-82
2023/10/01 09:28:43;;;;;;;16.83;3.90;;;20.30;99.90;;;19.41;66.98;101908.84;6149011;23;20017;-82
2023/10/01 09:36:11;;;;;;;17.67;4.07;;;20.20;99.90;;;19.20;68.70;101905.72;6045900;23;20024;-83
2023/10/01 09:39:03;;;;;;;15.90;3.60;;;;;;;19.28;68.74;101900.75;5979709;23;20027;-83
2023/10/01 09:41:55;;;;;;;;;;;;;;;;;;;;;
2023/10/01 09:44:46;;;;;;;18.85;3.75;;;20.20;99.90;;;19.43;66.97;101906.91;5937360;23;22215;-83
2023/10/01 09:51:31;;;;;;;15.52;3.08;;;20.40;99.90;;;19.53;67.57;101909.84;6117272;23;20070;-82
2023/10/01 09:54:51;;;;;;;;;;;;;;;;;;;;;
2023/10/01 09:57:43;;;;;;;19.05;3.55;;;20.30;99.90;;;19.37;67.71;101912.66;5955693;23;20123;-83
2023/10/01 10:01:11;;;;;;;12.63;3.67;;;20.30;99.90;;;19.28;67.37;101914.09;5888136;23;20033;-82
2023/10/01 10:03:56;;;;;;;;;;;20.20;99.90;;;19.14;67.88;101914.16;5836451;24;20026;-83
2023/10/01 10:07:06;;;;;;;18.88;4.28;;;20.10;99.90;;;19.09;68.53;101897.56;5802221;24;19919;-81
2023/10/01 10:13:00;;;;;;;19.92;3.50;;;20.30;99.90;;;19.59;67.71;101906.75;5796754;24;20079;-83
2023/10/01 10:15:55;;;;;;;18.95;3.35;;;;;;;19.79;66.35;101919.69;5760797;24;20022;-84
2023/10/01 10:19:05;;;;;;;15.10;3.55;;;20.60;99.90;;;19.89;64.97;101917.25;5767654;24;20019;-84
2023/10/01 10:25:32;;;;;;;20.38;4.10;;;20.80;99.90;;;19.92;63.12;101921.56;5743120;24;20027;-83
2023/10/01 10:32:12;;;;;;;19.55;4.07;;;20.60;99.90;;;19.63;63.88;101918.97;6064094;23;20014;-83
2023/10/01 10:35:04;;;;;;;13.32;3.70;;;;;;;19.18;64.87;101912.97;5996796;23;20507;-83
2023/10/01 10:38:03;;;;;;;13.45;3.47;;;20.30;99.90;;;19.06;66.11;101915.47;5960205;23;20048;-83
2023/10/01 10:41:14;;;;;;;18.25;3.90;;;20.10;99.90;;;18.99;66.71;101908.84;5975204;23;20022;-83
2023/10/01 10:44:08;;;;;;;21.38;4.10;;;20.00;99.90;;;19.09;66.76;101909.09;5880748;24;20020;-84
2023/10/01 10:47:03;;;;;;;20.48;3.47;;;20.00;99.90;;;19.21;66.24;101910.13;5898981;23;20542;-84
2023/10/01 10:50:11;;;;;;;18.10;4.18;;;20.10;99.90;;;19.30;64.71;101922.03;5978688;23;20047;-84
2023/10/01 10:56:44;;;;;;;17.25;4.50;;;20.10;99.90;;;19.13;65.42;101920.44;5781099;24;20109;-83
2023/10/01 11:02:42;;;;;;;16.27;3.85;;;20.00;99.90;;;19.21;64.89;101907.47;5723125;24;20424;-83
2023/10/01 11:06:04;;;;;;;19.58;4.15;;;20.10;99.90;;;19.29;66.39;101910.50;5691583;24;20945;-83
2023/10/01 11:08:53;;;;;;;22.63;4.05;;;;;;;19.30;65.86;101909.53;5767942;24;20732;-83
2023/10/01 11:15:45;;;;;;;;;;;;;;;;;;;;;
2023/10/01 11:18:14;;;;;;;15.55;3.90;;;20.30;99.90;;;19.50;65.94;101907.38;5728366;24;20717;-84
2023/10/01 11:21:01;;;;;;;16.38;3.80;;;20.40;99.90;;;19.53;64.74;101918.72;5755679;24;20463;-83
2023/10/01 11:23:35;;;;;;;15.82;3.88;;;20.40;99.90;;;19.56;65.69;101918.50;5699985;24;20041;-84
2023/10/01 11:32:57;;;;;;;22.88;4.15;;;20.40;99.90;;;19.34;65.55;101911.03;5990975;23;20371;-83
2023/10/01 11:39:04;;;;;;;12.80;3.83;;;20.10;99.90;;;18.99;67.26;101906.16;5756475;24;20084;-83
2023/10/01 11:45:48;;;;;;;18.17;3.95;;;20.10;99.90;;;19.24;66.92;101901.91;5649074;25;20096;-83
2023/10/01 11:49:44;;;;;;;20.30;4.47;;;20.10;99.90;;;19.29;65.68;101891.81;5668610;25;20021;-82
2023/10/01 11:54:44;;;;;;;16.60;4.32;;;;;;;19.09;67.40;101889.56;5642445;24;20085;-84
2023/10/01 11:57:34;;;;;;;;;;;;;;;;;;;;;
2023/10/01 12:03:34;;;;;;;18.20;4.07;;;19.80;99.90;;;18.87;67.69;101877.56;5603162;25;20087;-83
2023/10/01 12:06:35;;;;;;;16.25;3.78;;;19.80;99.90;;;18.92;67.83;101885.28;5665972;25;20030;-84
2023/10/01 12:09:13;;;;;;;19.60;3.83;;;19.90;99.90;;;18.91;67.60;101891.59;5649758;24;20130;-82
2023/10/01 12:12:08;;;;;;;19.27;3.70;;;19.80;99.90;;;18.75;67.94;101881.00;5697436;24;20047;-84
2023/10/01 12:14:52;;;;;;;19.85;3.95;;;19.70;99.90;;;18.79;68.52;101879.88;5838296;24;20133;-84
2023/10/01 12:17:40;;;;;;;17.65;4.00;;;19.80;99.90;;;19.00;66.61;101891.84;5902027;23;20030;-81
2023/10/01 12:20:28;;;;;;;16.40;3.80;;;19.90;99.90;;;19.04;66.95;101885.34;5943149;23;20550;-81
2023/10/01 12:23:17;;;;;;;16.50;3.65;;;;;;;18.94;66.98;101878.03;5897101;23;20249;-81
2023/10/01 12:26:32;;;;;;;16.55;3.63;;;19.70;99.90;;;18.56;66.96;101873.28;5956013;23;20019;-82
2023/10/01 12:31:40;;;;;;;16.08;4.05;;;19.50;99.90;;;18.49;67.99;101851.47;5932095;23;20052;-80
2023/10/01 12:34:17;;;;;;;15.35;3.38;;;19.50;99.90;;;18.55;68.03;101856.44;5933732;23;20019;-81
2023/10/01 12:36:44;;;;;;;14.27;3.05;;;19.50;99.90;;;18.67;68.10;101849.47;5962841;23;20083;-80
2023/10/01 12:39:27;;;;;;;18.55;3.50;;;;;;;18.74;67.18;101860.59;5962974;23;20019;-81
2023/10/01 12:42:13;;;;;;;13.73;2.90;;;19.60;99.90;;;18.82;66.78;101850.34;5975783;23;20338;-80
2023/10/01 12:44:38;;;;;;;17.93;3.13;;;19.70;99.90;;;18.78;65.79;101854.16;5940390;23;20058;-81
2023/10/01 12:47:07;;;;;;;10.55;2.40;;;19.60;99.90;;;18.72;65.59;101850.00;5971721;23;20010;-80
2023/10/01 12:49:42;;;;;;;14.75;3.30;;;19.60;99.90;;;18.77;66.32;101855.94;5994051;23;20336;-80
2023/10/01 12:52:14;;;;;;;11.38;3.08;;;19.70;99.90;;;18.87;66.18;101858.03;6033401;23;20390;-81
2023/10/01 12:54:50;;;;;;;12.15;2.97;;;19.70;99.90;;;18.98;65.57;101872.41;6022166;23;20026;-81
2023/10/01 12:57:33;;;;;;;13.93;2.88;;;19.80;99.90;;;19.15;65.60;101868.66;5994178;23;20029;-80
2023/10/01 13:00:44;;;;;;;15.32;2.50;;;20.00;99.90;;;19.40;64.60;101870.59;5955513;23;20025;-80
2023/10/01 13:03:42;;;;;;;13.73;3.13;;;20.30;99.90;;;19.72;62.52;101882.78;6007771;23;20142;-81
2023/10/01 13:06:14;;;;;;;12.15;2.58;;;20.50;99.90;;;20.00;61.19;101887.13;5852006;24;20076;-81
2023/10/01 13:08:42;;;;;;;10.27;2.78;;;20.60;99.90;;;19.96;61.41;101882.97;5853345;23;20023;-81
2023/10/01 13:11:46;;;;;;;9.55;2.40;;;20.70;99.90;;;19.93;61.90;101876.00;5885867;23;20055;-81
2023/10/01 13:14:16;;;;;;;13.68;2.88;;;20.70;99.90;;;20.02;62.13;101882.53;5922352;23;20027;-82
2023/10/01 13:16:50;;;;;;;11.82;2.20;;;20.70;99.90;;;20.02;58.80;101885.19;5820824;24;20095;-81
2023/10/01 13:19:23;;;;;;;9.07;2.13;;;20.80;99.90;;;20.13;59.81;101887.16;5853009;23;20169;-80
2023/10/01 13:21:49;;;;;;;8.00;2.00;;;20.90;99.90;;;20.00;58.71;101895.13;5883028;24;20388;-81
2023/10/01 13:24:20;;;;;;;8.65;2.60;;;20.80;99.90;;;19.95;59.22;101883.91;5858659;24;20053;-81
2023/10/01 13:26:46;;;;;;;12.55;2.58;;;20.70;99.90;;;19.95;59.49;101892.78;5876696;24;20514;-82
2023/10/01 13:29:28;;;;;;;11.38;2.42;;;20.70;99.90;;;19.75;58.43;101902.16;5900655;24;20016;-81
2023/10/01 13:32:02;;;;;;;9.75;2.53;;;20.60;99.90;;;19.65;59.28;101898.34;5924843;24;20503;-81
2023/10/01 13:34:46;;;;;;;12.90;2.75;;;20.50;99.90;;;19.69;58.91;101891.84;5930309;23;20351;-81
2023/10/01 13:37:18;;;;;;;8.40;2.53;;;20.50;99.90;;;19.73;58.42;101874.69;5918278;23;20404;-80
2023/10/01 13:39:52;;;;;;;9.77;2.85;;;20.40;99.90;;;19.62;59.61;101879.84;5914849;24;20347;-81
2023/10/01 14:10:04;;;;;;;6.82;2.63;;;19.70;99.90;;;18.98;61.90;101864.41;6000235;23;20428;-81
2023/10/01 14:12:41;;;;;;;20.25;3.33;;;19.80;99.90;;;19.08;61.92;101848.66;5953245;23;20471;-81
2023/10/01 14:15:24;;;;;;;12.48;3.00;;;19.90;99.90;;;19.13;62.60;101851.88;6009689;23;20010;-81
2023/10/01 14:17:55;;;;;;;12.48;2.65;;;19.90;99.90;;;19.13;62.20;101851.88;6033981;23;20093;-81
2023/10/01 14:23:39;;;;;;;17.50;2.97;;;19.80;99.90;;;18.90;63.17;101844.50;6001378;23;20014;-81
2023/10/01 14:26:18;;;;;;;16.42;3.20;;;19.70;99.90;;;18.80;63.22;101841.56;6040306;23;20045;-81
2023/10/01 14:28:49;;;;;;;19.48;3.47;;;19.70;99.90;;;18.81;63.43;101841.47;6013677;23;20018;-81
2023/10/01 14:31:41;;;;;;;14.57;3.45;;;19.60;99.90;;;18.85;64.05;101829.66;6005752;23;20016;-82
2023/10/01 14:34:17;;;;;;;16.88;3.50;;;19.70;99.90;;;18.93;63.99;101829.16;5997845;23;20105;-81
2023/10/01 14:36:43;;;;;;;15.80;3.40;;;19.70;99.90;;;19.04;64.40;101823.13;5985455;23;20034;-81
2023/10/01 14:39:29;;;;;;;12.65;3.53;;;19.80;99.90;;;19.13;64.36;101829.66;6029367;23;20006;-81
2023/10/01 14:41:58;;;;;;;12.98;3.17;;;19.90;99.90;;;19.22;63.99;101826.38;5967443;23;20105;-80
2023/10/01 14:44:27;;;;;;;15.00;3.33;;;19.90;99.90;;;19.30;63.58;101821.41;5940362;23;20023;-80
2023/10/01 14:46:56;;;;;;;13.60;3.47;;;20.00;99.90;;;19.36;63.92;101817.50;6049497;23;20011;-81
2023/10/01 14:49:24;;;;;;;15.07;3.25;;;20.00;99.90;;;19.34;62.99;101820.25;5958426;23;20011;-81
2023/10/01 14:51:53;;;;;;;15.32;3.53;;;20.00;99.90;;;19.29;62.69;101808.16;6043581;23;20093;-81
2023/10/01 14:54:19;;;;;;;10.77;3.50;;;20.00;99.90;;;19.19;63.08;101803.44;5995156;23;20014;-81
2023/10/01 14:56:58;;;;;;;15.57;3.05;;;19.90;99.90;;;19.14;63.22;101802.03;6026810;23;20041;-81
2023/10/01 14:59:30;;;;;;;14.77;3.72;;;19.90;99.90;;;19.09;63.64;101796.97;6001559;23;20015;-81
2023/10/01 15:01:56;;;;;;;14.60;3.05;;;19.90;99.90;;;19.04;63.77;101796.44;5980367;23;20103;-80
2023/10/01 15:04:23;;;;;;;23.08;3.63;;;19.80;99.90;;;18.99;64.15;101795.88;6058889;23;20010;-83
2023/10/01 15:06:58;;;;;;;16.63;3.80;;;19.80;99.90;;;18.95;64.50;101789.03;5973332;23;20485;-81
2023/10/01 15:09:41;;;;;;;12.02;3.17;;;19.70;99.90;;;18.90;65.10;101785.78;5972044;23;20078;-80
2023/10/01 15:12:09;;;;;;;13.55;3.78;;;19.70;99.90;;;18.83;65.74;101788.00;6049802;23;20014;-80
2023/10/01 15:14:36;;;;;;;10.90;3.70;;;19.60;99.90;;;18.77;66.05;101783.91;5983367;23;20002;-81
2023/10/01 15:17:07;;;;;;;16.55;4.50;;;19.60;99.90;;;18.76;66.42;101781.31;6051255;23;20022;-79
2023/10/01 15:19:46;;;;;;;15.07;4.20;;;19.60;99.90;;;18.75;67.09;101784.97;6058393;23;20025;-80
2023/10/01 15:22:14;;;;;;;16.30;3.60;;;19.60;99.90;;;18.74;67.44;101785.91;5974046;23;20038;-80
2023/10/01 15:25:00;;;;;;;16.60;4.03;;;19.60;99.90;;;18.75;67.82;101790.28;6012729;23;20779;-80
2023/10/01 15:27:39;;;;;;;15.23;4.15;;;19.60;99.90;;;18.82;69.08;101787.16;5955064;23;20081;-81
2023/10/01 15:30:20;;;;;;;21.95;4.05;;;19.60;99.90;;;18.93;70.02;101791.78;5963362;23;20014;-81
2023/10/01 15:33:08;;;;;;;11.90;4.05;;;19.70;99.90;;;19.02;71.09;101790.34;5986963;23;20011;-80
2023/10/01 15:35:43;;;;;;;13.85;4.63;;;19.80;99.90;;;19.05;70.42;101798.16;6031681;23;20018;-79
2023/10/01 15:38:12;;;;;;;14.07;4.95;;;19.80;99.90;;;19.06;70.58;101792.69;6044070;23;20058;-80